Hennepin, Illinois
Current Conditions -  °F | °C
As of 7:35 AM on Friday 28 Nov 2014 (Local Time) from KVYS Reporting Station
Scattered Clouds Scattered Clouds  
Wind Chill:   Ceiling: Unl
Heat Index: 20°   Visibility: 10mi
Dew Point: 15°   Wind: 10mph
Humidity: 81%   Direction: 150°SSE
Pressure: 30.26"   Gusts: NA
Location:  41.25°N, 89.34°W
Report Text: KVYS 281335Z AUTO 15009KT 10SM SCT120 M06/M09 A3026 RMK AO2 T10651092
Loading
Personal Weather Stations






























Interactive Weather Map New forecast layout! Learn more

10-Day Weather Forecast

Advertisements
Track Severe Weather on mobile